Time;durP1;ratioP1;P1;durP2;ratioP2;P2;SDS_P1;SDS_P2;PMS_P1;PMS_P2;Temp;Humidity;BMP_temperature;BMP_pressure;BME280_temperature;BME280_humidity;BME280_pressure;Samples;Min_cycle;Max_cycle;Signal;HPM_P1;HPM_P2
2022/07/29 00:02:11;;;;;;;6.05;4.53;;;;;;;15.94;100.00;91179.28;5012062;28;20061;-68
2022/07/29 00:04:36;;;;;;;4.53;3.65;;;;;;;16.02;100.00;91191.81;5013059;28;20025;-68
2022/07/29 00:07:03;;;;;;;5.35;3.88;;;;;;;16.00;100.00;91184.09;5013132;28;20476;-68
2022/07/29 00:09:29;;;;;;;5.22;3.90;;;;;;;15.98;100.00;91185.56;5012831;28;20160;-69
2022/07/29 00:11:58;;;;;;;6.45;4.05;;;;;;;15.94;100.00;91192.69;5012909;28;20038;-69
2022/07/29 00:14:24;;;;;;;5.68;3.97;;;;;;;15.90;100.00;91199.84;5012804;28;20033;-69
2022/07/29 00:16:49;;;;;;;5.80;4.50;;;;;;;15.85;100.00;91187.44;5012694;28;20177;-69
2022/07/29 00:19:14;;;;;;;6.40;4.15;;;;;;;15.79;100.00;91194.16;5012648;28;20515;-67
2022/07/29 00:21:40;;;;;;;6.30;4.15;;;;;;;15.77;100.00;91202.50;5012701;28;20431;-67
2022/07/29 00:24:06;;;;;;;5.32;3.97;;;;;;;15.82;100.00;91207.69;5012543;28;20104;-67
2022/07/29 00:26:32;;;;;;;4.75;3.83;;;;;;;15.85;100.00;91203.53;5012466;28;20110;-68
2022/07/29 00:29:02;;;;;;;5.47;3.53;;;;;;;15.85;100.00;91198.97;5012553;28;20401;-67
2022/07/29 00:31:28;;;;;;;3.95;3.33;;;;;;;15.75;100.00;91194.00;5012519;28;20069;-69
2022/07/29 00:33:54;;;;;;;4.68;3.63;;;;;;;15.79;100.00;91205.66;5012581;28;20518;-69
2022/07/29 00:36:20;;;;;;;4.40;3.70;;;;;;;15.73;100.00;91198.94;5012485;28;20080;-69
2022/07/29 00:38:48;;;;;;;4.38;3.63;;;;;;;15.63;100.00;91191.34;5012552;28;20118;-68
2022/07/29 00:41:13;;;;;;;5.10;4.07;;;;;;;15.62;100.00;91189.78;5010928;28;20484;-68
2022/07/29 00:43:39;;;;;;;5.82;3.90;;;;;;;15.58;100.00;91192.28;5012235;28;20034;-68
2022/07/29 00:46:04;;;;;;;7.70;3.95;;;;;;;15.55;100.00;91192.16;5012123;28;20037;-68
2022/07/29 00:48:30;;;;;;;5.00;3.42;;;;;;;15.51;100.00;91185.91;5012071;28;20053;-68
2022/07/29 00:51:01;;;;;;;4.20;3.22;;;;;;;15.38;100.00;91179.72;5012089;28;20103;-67
2022/07/29 00:53:26;;;;;;;5.30;3.85;;;;;;;15.45;100.00;91181.84;5012079;28;20033;-67
2022/07/29 00:55:54;;;;;;;5.80;3.90;;;;;;;15.47;100.00;91182.31;5012021;28;20038;-68
2022/07/29 00:58:20;;;;;;;7.57;4.38;;;;;;;15.43;100.00;91184.09;5011751;28;20025;-67
2022/07/29 01:00:45;;;;;;;7.93;4.20;;;;;;;15.42;100.00;91182.53;5011952;28;20040;-67
2022/07/29 01:03:12;;;;;;;4.22;3.70;;;;;;;15.41;100.00;91184.41;5011810;28;20034;-68
2022/07/29 01:05:40;;;;;;;5.85;3.88;;;;;;;15.37;100.00;91178.16;5011850;28;20034;-68
2022/07/29 01:08:06;;;;;;;5.45;3.97;;;;;;;15.28;100.00;91180.91;5011572;28;20029;-69
2022/07/29 01:10:32;;;;;;;5.75;4.10;;;;;;;15.23;100.00;91173.09;5011509;28;20076;-68
2022/07/29 01:13:00;;;;;;;7.10;3.88;;;;;;;15.24;100.00;91180.00;5011491;28;20092;-68
2022/07/29 01:15:26;;;;;;;4.40;3.75;;;;;;;15.24;100.00;91174.66;5011632;28;20033;-68
2022/07/29 01:18:10;;;;;;;5.22;3.90;;;;;;;15.20;100.00;91179.13;5011464;28;20416;-68
2022/07/29 01:20:41;;;;;;;;;;;;;;;15.10;100.00;91174.16;5012022;28;20115;-67
2022/07/29 01:23:06;;;;;;;6.30;4.25;;;;;;;15.03;100.00;91173.91;5011585;28;20012;-67
2022/07/29 01:25:45;;;;;;;6.63;4.25;;;;;;;15.08;100.00;91165.66;5011601;28;20106;-68
2022/07/29 01:28:32;;;;;;;5.88;4.35;;;;;;;15.13;100.00;91170.81;5011480;28;20038;-68
2022/07/29 01:31:00;;;;;;;5.15;3.60;;;;;;;15.14;100.00;91163.56;5011605;28;20452;-68
2022/07/29 01:36:17;;;;;;;5.38;3.78;;;;;;;15.01;100.00;91175.38;5011361;28;20028;-68
2022/07/29 01:38:47;;;;;;;5.25;3.90;;;;;;;14.98;100.00;91176.78;5010053;28;20419;-68
2022/07/29 01:41:17;;;;;;;4.90;3.30;;;;;;;14.99;100.00;91175.69;5011414;28;20037;-68
2022/07/29 01:43:57;;;;;;;5.18;3.50;;;;;;;15.01;100.00;91172.69;5011400;28;20037;-68
2022/07/29 01:46:33;;;;;;;4.05;3.30;;;;;;;15.03;100.00;91173.13;5011282;28;20029;-68
2022/07/29 01:49:06;;;;;;;5.53;3.30;;;;;;;14.98;100.00;91171.41;5011316;28;20030;-68
2022/07/29 01:51:55;;;;;;;5.28;3.55;;;;;;;14.97;100.00;91161.81;5011301;28;20176;-68
2022/07/29 01:54:45;;;;;;;5.68;3.72;;;;;;;14.87;100.00;91170.28;5007299;28;20050;-67
2022/07/29 01:57:18;;;;;;;4.70;3.65;;;;;;;14.80;100.00;91176.16;5011218;28;20033;-67
2022/07/29 01:59:46;;;;;;;9.05;3.92;;;;;;;14.78;100.00;91164.97;5011128;28;20045;-68
2022/07/29 02:02:14;;;;;;;4.28;3.35;;;;;;;14.80;100.00;91172.69;5011195;28;20030;-67
2022/07/29 02:04:42;;;;;;;3.90;3.00;;;;;;;14.80;100.00;91165.44;5009921;28;20037;-68
2022/07/29 02:07:13;;;;;;;6.28;3.92;;;;;;;14.76;100.00;91174.47;5011080;28;20034;-68
2022/07/29 02:09:40;;;;;;;4.47;3.63;;;;;;;14.71;100.00;91175.44;5010991;28;20512;-67
2022/07/29 02:12:07;;;;;;;6.47;4.10;;;;;;;14.73;100.00;91172.44;5011138;28;20026;-68
2022/07/29 02:14:36;;;;;;;5.25;3.60;;;;;;;14.75;100.00;91173.69;5160362;23;20724;-68
2022/07/29 02:17:02;;;;;;;5.35;3.97;;;;;;;14.69;100.00;91164.28;5029280;28;20120;-67
2022/07/29 02:19:29;;;;;;;4.57;3.38;;;;;;;14.72;100.00;91168.19;5030719;28;20570;-68
2022/07/29 02:21:57;;;;;;;5.05;3.92;;;;;;;14.75;100.00;91170.22;5046292;28;20040;-68
2022/07/29 02:24:25;;;;;;;6.25;4.10;;;;;;;14.76;100.00;91169.09;5031104;28;20041;-67
2022/07/29 02:26:53;;;;;;;6.82;3.63;;;;;;;14.60;100.00;91145.59;5034483;28;20494;-67
2022/07/29 02:29:23;;;;;;;4.60;3.60;;;;;;;14.59;100.00;91154.75;5034650;28;20104;-67
2022/07/29 02:31:51;;;;;;;5.30;3.70;;;;;;;14.71;100.00;91162.06;5034847;28;20437;-68
2022/07/29 02:34:19;;;;;;;4.63;3.38;;;;;;;14.76;100.00;91161.84;5034546;28;20025;-68
2022/07/29 02:36:45;;;;;;;8.15;3.33;;;;;;;14.83;100.00;91161.31;5034340;28;20033;-68
2022/07/29 02:39:13;;;;;;;5.53;3.03;;;;;;;14.86;100.00;91158.00;5034381;28;20133;-68
2022/07/29 02:41:43;;;;;;;7.18;3.90;;;;;;;14.84;100.00;91154.88;5034388;28;20053;-67
2022/07/29 02:44:13;;;;;;;6.28;3.80;;;;;;;14.75;100.00;91156.81;5034102;28;20129;-67
2022/07/29 02:46:45;;;;;;;5.35;3.78;;;;;;;14.73;100.00;91153.69;5034207;28;20336;-67
2022/07/29 02:49:27;;;;;;;4.00;3.60;;;;;;;14.73;100.00;91156.38;5034253;28;20033;-68
2022/07/29 02:52:04;;;;;;;5.03;3.20;;;;;;;14.70;100.00;91165.06;5034248;28;20104;-68
2022/07/29 02:55:04;;;;;;;5.20;3.40;;;;;;;14.66;100.00;91154.19;5034130;28;20025;-68
2022/07/29 02:57:34;;;;;;;6.68;3.35;;;;;;;14.59;100.00;91141.34;5021875;28;20042;-68
2022/07/29 03:00:06;;;;;;;5.85;3.72;;;;;;;14.63;100.00;91161.00;5049237;28;20029;-68
2022/07/29 03:02:44;;;;;;;5.18;3.70;;;;;;;14.63;100.00;91147.63;5033981;28;20037;-68
2022/07/29 03:05:20;;;;;;;5.30;4.00;;;;;;;14.63;100.00;91150.28;5033824;28;20032;-67
2022/07/29 03:07:52;;;;;;;5.93;3.90;;;;;;;14.60;100.00;91150.94;5033823;28;20029;-67
2022/07/29 03:10:18;;;;;;;6.40;3.63;;;;;;;14.57;100.00;91150.81;5033753;28;20095;-67
2022/07/29 03:12:44;;;;;;;5.85;3.80;;;;;;;14.49;100.00;91149.78;5033678;28;20037;-68
2022/07/29 03:15:10;;;;;;;6.65;4.47;;;;;;;14.47;100.00;91162.69;5033455;28;20049;-67
2022/07/29 03:17:37;;;;;;;3.83;3.40;;;;;;;14.48;100.00;91153.56;5033633;28;20112;-68
2022/07/29 03:20:03;;;;;;;4.72;3.50;;;;;;;14.49;100.00;91163.16;5033466;28;20034;-67
2022/07/29 03:22:29;;;;;;;6.07;3.83;;;;;;;14.49;100.00;91147.09;5033570;28;20025;-68
2022/07/29 03:24:54;;;;;;;6.20;3.88;;;;;;;14.57;100.00;91154.28;5033447;28;20056;-67
2022/07/29 03:27:20;;;;;;;5.40;3.88;;;;;;;14.58;100.00;91153.19;5033449;28;20037;-67
2022/07/29 03:29:46;;;;;;;4.38;3.45;;;;;;;14.65;100.00;91152.63;5033437;28;20113;-68
2022/07/29 03:32:11;;;;;;;6.40;4.20;;;;;;;14.66;100.00;91163.03;5033356;28;20479;-68
2022/07/29 03:34:37;;;;;;;5.18;3.13;;;;;;;14.64;100.00;91145.72;5033146;28;20029;-69
2022/07/29 03:37:03;;;;;;;4.78;3.42;;;;;;;14.76;100.00;91159.16;5033215;28;20030;-70
2022/07/29 03:39:33;;;;;;;4.63;3.58;;;;;;;14.77;100.00;91160.75;5033147;28;20034;-69
2022/07/29 03:42:00;;;;;;;6.07;3.75;;;;;;;14.71;100.00;91140.63;5033172;28;20036;-68
2022/07/29 03:44:27;;;;;;;3.67;3.00;;;;;;;14.77;100.00;91150.03;5033072;28;20033;-68
2022/07/29 03:46:55;;;;;;;4.80;3.50;;;;;;;14.80;100.00;91148.59;5032894;28;20049;-68
2022/07/29 03:49:23;;;;;;;5.05;3.60;;;;;;;14.96;100.00;91152.22;5033031;28;20033;-68
2022/07/29 03:51:49;;;;;;;5.55;3.85;;;;;;;14.99;100.00;91151.59;5032996;28;20083;-68
2022/07/29 03:54:15;;;;;;;5.05;3.38;;;;;;;14.87;100.00;91144.28;5032928;28;20029;-67
2022/07/29 03:56:46;;;;;;;4.50;3.42;;;;;;;14.89;100.00;91146.63;5048073;28;20036;-68
2022/07/29 03:59:12;;;;;;;5.93;3.97;;;;;;;14.90;100.00;91153.53;5032707;28;20414;-69
2022/07/29 04:01:38;;;;;;;3.90;3.45;;;;;;;15.01;100.00;91153.94;5032674;28;20021;-69
2022/07/29 04:04:04;;;;;;;4.95;3.70;;;;;;;15.09;100.00;91153.06;5032512;28;20029;-70
2022/07/29 04:06:44;;;;;;;4.07;3.30;;;;;;;15.22;100.00;91149.31;5032345;28;20100;-69
2022/07/29 04:09:09;;;;;;;4.00;3.40;;;;;;;15.38;100.00;91147.56;5032559;28;20513;-69
2022/07/29 04:11:36;;;;;;;3.53;2.97;;;;;;;15.46;100.00;91143.19;5032545;28;20052;-68
2022/07/29 04:14:02;;;;;;;4.85;3.38;;;;;;;15.53;100.00;91148.81;5032666;28;20442;-69
2022/07/29 04:16:27;;;;;;;3.92;3.35;;;;;;;15.58;100.00;91149.38;5032048;28;20063;-68
2022/07/29 04:18:53;;;;;;;5.07;3.45;;;;;;;15.69;100.00;91152.44;5032417;28;20095;-69
2022/07/29 04:21:18;;;;;;;6.30;4.05;;;;;;;15.66;100.00;91149.66;5032486;28;20017;-69
2022/07/29 04:23:45;;;;;;;5.47;3.53;;;;;;;15.74;100.00;91159.47;5032544;28;20037;-69
2022/07/29 04:26:10;;;;;;;6.05;4.22;;;;;;;15.66;100.00;91158.47;5032411;28;20490;-69
2022/07/29 04:28:36;;;;;;;5.47;4.60;;;;;;;15.62;100.00;91157.59;5032381;28;20040;-69
2022/07/29 04:31:01;;;;;;;6.93;5.15;;;;;;;15.70;100.00;91156.69;5032358;28;20023;-69
2022/07/29 04:33:27;;;;;;;5.00;4.10;;;;;;;15.83;100.00;91163.63;5032236;28;20025;-69
2022/07/29 04:35:52;;;;;;;6.13;4.38;;;;;;;15.91;100.00;91166.53;5032148;28;20593;-70
2022/07/29 04:38:18;;;;;;;4.32;3.75;;;;;;;15.96;100.00;91150.22;5032172;28;20033;-70
2022/07/29 04:40:43;;;;;;;5.03;3.90;;;;;;;16.21;100.00;91157.13;5032194;28;20061;-70
2022/07/29 04:43:09;;;;;;;5.47;4.03;;;;;;;16.36;100.00;91169.09;5032268;28;20503;-70
2022/07/29 04:45:34;;;;;;;4.63;3.78;;;;;;;16.44;100.00;91169.00;5032032;28;20053;-70
2022/07/29 04:48:00;;;;;;;4.65;3.42;;;;;;;16.56;100.00;91162.78;5031493;28;20095;-70
2022/07/29 04:50:25;;;;;;;4.72;3.67;;;;;;;16.66;100.00;91156.97;5031940;28;20064;-70
2022/07/29 04:52:51;;;;;;;5.38;3.70;;;;;;;16.64;100.00;91155.75;5032075;28;20518;-70
2022/07/29 04:55:16;;;;;;;4.78;4.05;;;;;;;16.72;100.00;91149.47;5031986;28;20029;-70
2022/07/29 04:57:42;;;;;;;6.88;4.22;;;;;;;16.77;100.00;91158.09;5032040;28;20033;-70
2022/07/29 05:00:08;;;;;;;4.40;3.67;;;;;;;16.87;100.00;91172.94;5031814;28;20036;-70
2022/07/29 05:02:34;;;;;;;6.57;4.10;;;;;;;16.73;100.00;91167.19;5031934;28;20550;-69
2022/07/29 05:04:59;;;;;;;6.13;4.63;;;;;;;16.87;100.00;91169.47;5031711;28;20026;-69
2022/07/29 05:07:25;;;;;;;9.35;4.43;;;;;;;16.77;100.00;91176.91;5031684;28;20033;-70
2022/07/29 05:09:50;;;;;;;6.47;4.63;;;;;;;16.95;100.00;91165.88;5031590;28;20025;-70
2022/07/29 05:12:16;;;;;;;7.10;5.13;;;;;;;17.04;100.00;91167.31;5031599;28;20411;-70
2022/07/29 05:14:41;;;;;;;6.50;4.13;;;;;;;17.28;100.00;91168.31;5031471;28;20030;-70
2022/07/29 05:17:07;;;;;;;7.93;4.40;;;;;;;17.61;100.00;91166.13;5031265;28;20045;-70
2022/07/29 05:19:33;;;;;;;5.45;4.32;;;;;;;17.55;100.00;91177.50;5031297;28;20034;-69
2022/07/29 05:21:59;;;;;;;5.82;4.38;;;;;;;17.96;100.00;91174.34;5031328;28;20491;-69
2022/07/29 05:24:25;;;;;;;8.68;4.97;;;;;;;18.29;100.00;91167.81;5031276;28;20395;-69
2022/07/29 05:26:51;;;;;;;7.18;5.18;;;;;;;18.43;100.00;91175.44;5031347;28;20044;-69
2022/07/29 05:29:16;;;;;;;5.60;4.60;;;;;;;19.19;100.00;91176.75;5031353;28;20017;-70
2022/07/29 05:31:41;;;;;;;7.78;4.88;;;;;;;21.47;100.00;91177.78;5031282;28;20506;-71
2022/07/29 05:34:08;;;;;;;5.90;4.82;;;;;;;23.94;98.30;91171.09;5031327;28;20476;-70
2022/07/29 05:36:33;;;;;;;5.80;4.50;;;;;;;26.01;76.31;91179.84;5031201;28;20484;-69
2022/07/29 05:38:59;;;;;;;6.18;4.40;;;;;;;27.19;66.72;91176.34;5031089;28;20490;-69
2022/07/29 05:41:24;;;;;;;5.18;4.53;;;;;;;28.25;61.93;91175.13;5031104;28;20033;-69
2022/07/29 05:43:50;;;;;;;5.85;4.38;;;;;;;29.49;57.36;91169.69;5031117;28;20025;-69
2022/07/29 05:46:15;;;;;;;6.82;3.83;;;;;;;31.06;52.15;91180.13;5030942;28;20502;-70
2022/07/29 05:48:41;;;;;;;3.92;3.50;;;;;;;32.72;46.87;91187.09;5031075;28;20056;-70
2022/07/29 05:51:06;;;;;;;4.10;3.60;;;;;;;33.63;45.10;91174.34;5030994;28;20025;-70
2022/07/29 05:53:32;;;;;;;5.15;4.15;;;;;;;33.49;44.11;91185.88;5030741;28;20022;-69
2022/07/29 05:55:57;;;;;;;4.97;4.30;;;;;;;33.16;44.58;91168.03;5030856;28;20039;-69
2022/07/29 05:58:23;;;;;;;5.47;4.65;;;;;;;33.89;43.00;91182.56;5030924;28;20021;-69
2022/07/29 06:00:48;;;;;;;5.25;4.15;;;;;;;33.89;43.27;91185.31;5034026;28;20025;-69
2022/07/29 06:03:14;;;;;;;4.80;4.18;;;;;;;34.35;43.04;91188.41;5035407;28;20029;-70
2022/07/29 06:05:39;;;;;;;5.00;4.45;;;;;;;34.88;41.76;91194.00;5035025;28;20402;-69
2022/07/29 06:08:08;;;;;;;5.00;4.30;;;;;;;35.93;39.60;91190.91;5035199;28;20379;-70
2022/07/29 06:10:36;;;;;;;5.38;4.78;;;;;;;36.47;38.61;91191.41;5034760;28;20061;-70
2022/07/29 06:13:02;;;;;;;4.82;3.88;;;;;;;37.59;37.31;91189.34;5034975;28;20506;-70
2022/07/29 06:15:27;;;;;;;5.47;4.53;;;;;;;37.54;37.49;91189.97;5034723;28;20047;-69
2022/07/29 06:17:52;;;;;;;5.55;4.97;;;;;;;36.36;38.30;91188.31;5034857;28;20108;-70
2022/07/29 06:20:19;;;;;;;5.25;4.45;;;;;;;35.15;41.09;91185.03;5034504;28;20576;-70
2022/07/29 06:22:44;;;;;;;5.88;4.43;;;;;;;35.60;40.71;91184.41;5034670;28;20465;-70
2022/07/29 06:25:10;;;;;;;6.45;5.05;;;;;;;35.96;39.67;91190.00;5034313;28;20026;-70
2022/07/29 06:27:35;;;;;;;10.13;4.85;;;;;;;35.53;40.66;91190.25;5034269;28;20014;-69
2022/07/29 06:30:01;;;;;;;8.80;5.07;;;;;;;37.67;37.76;91192.50;5034554;28;20123;-70
2022/07/29 06:32:27;;;;;;;5.07;4.32;;;;;;;36.60;36.93;91194.72;5034582;28;20025;-70
2022/07/29 06:34:52;;;;;;;4.60;4.18;;;;;;;38.02;36.08;91192.75;5034446;28;20091;-70
2022/07/29 06:37:18;;;;;;;5.40;4.75;;;;;;;39.07;35.99;91192.44;5034499;28;20057;-71
2022/07/29 06:39:43;;;;;;;6.47;5.10;;;;;;;37.58;36.25;91187.78;5034362;28;20032;-71
2022/07/29 06:42:09;;;;;;;6.25;4.80;;;;;;;35.83;39.88;91197.66;5034402;28;20022;-70
2022/07/29 06:44:34;;;;;;;5.25;4.32;;;;;;;36.49;39.64;91197.25;5034238;28;20033;-70
2022/07/29 06:47:00;;;;;;;5.60;4.55;;;;;;;36.15;39.27;91185.25;5034060;28;20498;-69
2022/07/29 06:49:27;;;;;;;7.15;4.55;;;;;;;32.82;45.16;91188.75;5034290;28;20044;-74
2022/07/29 06:51:54;;;;;;;6.93;5.07;;;;;;;31.90;46.99;91185.91;5033954;28;20169;-75
2022/07/29 06:54:19;;;;;;;5.63;4.28;;;;;;;32.86;44.61;91183.16;5034126;28;20033;-74
2022/07/29 06:56:45;;;;;;;11.52;7.10;;;;;;;34.16;43.76;91182.00;5033913;28;20038;-74
2022/07/29 06:59:12;;;;;;;5.47;3.80;;;;;;;36.15;39.81;91187.25;5033761;28;20483;-76
2022/07/29 07:01:39;;;;;;;9.60;4.68;;;;;;;35.59;40.91;91185.63;5033444;28;20033;-77
2022/07/29 07:04:04;;;;;;;6.53;5.10;;;;;;;33.64;44.04;91186.94;5033585;28;20108;-77
2022/07/29 07:06:30;;;;;;;4.85;4.22;;;;;;;31.56;47.07;91178.91;5033917;28;20113;-76
2022/07/29 07:08:55;;;;;;;5.88;4.18;;;;;;;32.66;46.81;91180.56;5033665;28;20034;-76
2022/07/29 07:11:21;;;;;;;5.28;4.63;;;;;;;32.43;47.20;91184.41;5032195;28;20049;-75
2022/07/29 07:13:46;;;;;;;8.10;6.35;;;;;;;33.37;44.35;91177.63;5033853;28;20060;-71
2022/07/29 07:16:12;;;;;;;4.28;3.63;;;;;;;35.14;41.57;91187.00;5033535;28;20423;-73
2022/07/29 07:18:37;;;;;;;7.45;5.50;;;;;;;36.18;40.71;91178.78;5033597;28;20025;-72
2022/07/29 07:21:04;;;;;;;4.32;3.75;;;;;;;36.28;39.35;91180.28;5027156;28;20037;-71
2022/07/29 07:23:30;;;;;;;32.28;22.70;;;;;;;37.62;37.66;91184.84;5013372;28;20179;-73
2022/07/29 07:25:55;;;;;;;6.35;4.85;;;;;;;38.41;35.83;91188.00;5013689;28;20614;-71
2022/07/29 07:28:21;;;;;;;5.25;3.78;;;;;;;40.83;33.53;91195.84;5013584;28;20029;-70
2022/07/29 07:30:46;;;;;;;3.83;2.97;;;;;;;40.42;31.75;91195.94;5012874;28;20160;-72
2022/07/29 07:33:12;;;;;;;14.27;8.63;;;;;;;40.60;32.83;91183.69;5013868;28;20048;-76
2022/07/29 07:35:37;;;;;;;3.25;2.95;;;;;;;39.14;33.58;91181.72;5014217;28;20705;-76
2022/07/29 07:38:03;;;;;;;3.97;3.30;;;;;;;38.41;33.40;91192.78;5013430;28;20034;-77
2022/07/29 07:40:28;;;;;;;2.65;2.45;;;;;;;35.19;36.19;91186.44;5013371;28;20022;-73
2022/07/29 07:42:53;;;;;;;3.97;3.05;;;;;;;35.00;37.64;91187.56;5013497;28;20474;-74
2022/07/29 07:45:19;;;;;;;2.75;2.55;;;;;;;34.36;37.76;91178.94;5013284;28;20022;-74
2022/07/29 07:47:45;;;;;;;6.50;3.83;;;;;;;38.29;34.57;91184.22;5012868;28;20080;-79
2022/07/29 07:50:13;;;;;;;3.38;2.80;;;;;;;40.49;32.35;91191.94;5013629;28;20022;-75
2022/07/29 07:52:52;;;;;;;2.78;2.55;;;;;;;39.97;32.64;91191.81;5012773;28;20040;-75
2022/07/29 07:55:19;;;;;;;2.55;2.35;;;;;;;39.64;32.40;91183.75;5012798;28;20026;-72
2022/07/29 07:57:45;;;;;;;3.38;2.50;;;;;;;39.29;32.74;91187.25;5013014;28;20415;-70
2022/07/29 08:00:12;;;;;;;2.95;2.67;;;;;;;38.02;33.07;91176.09;5012994;28;20113;-71
2022/07/29 08:02:39;;;;;;;2.95;2.75;;;;;;;38.24;35.19;91184.91;5012497;28;20034;-70
2022/07/29 08:05:06;;;;;;;4.35;3.05;;;;;;;39.76;33.58;91190.97;5012763;28;20091;-72
2022/07/29 08:07:32;;;;;;;3.45;2.55;;;;;;;38.48;33.42;91181.28;5013065;28;20058;-70
2022/07/29 08:09:57;;;;;;;2.95;2.58;;;;;;;38.35;34.10;91184.34;5011457;28;20053;-74
2022/07/29 08:12:23;;;;;;;3.28;2.90;;;;;;;39.74;33.55;91185.13;5012767;28;20495;-74
2022/07/29 08:14:48;;;;;;;3.75;3.08;;;;;;;37.94;34.86;91183.25;5012341;28;20495;-72
2022/07/29 08:17:13;;;;;;;3.45;2.88;;;;;;;37.42;35.02;91179.88;5011944;28;20480;-71
2022/07/29 08:19:39;;;;;;;4.72;3.22;;;;;;;38.59;34.02;91189.84;5012652;28;20022;-70
2022/07/29 08:22:05;;;;;;;3.13;2.83;;;;;;;37.38;35.42;91188.34;5011809;28;20030;-71
2022/07/29 08:27:14;;;;;;;3.30;3.00;;;;;;;40.42;33.39;91186.81;5012496;28;20045;-72
2022/07/29 08:29:40;;;;;;;6.15;3.20;;;;;;;40.05;33.53;91190.88;5011670;28;20022;-71
2022/07/29 08:32:06;;;;;;;6.93;2.88;;;;;;;39.55;35.44;91183.88;5011738;28;20117;-70
2022/07/29 08:34:32;;;;;;;3.45;3.15;;;;;;;39.81;33.44;91182.72;5011980;28;20029;-72
2022/07/29 08:36:58;;;;;;;3.25;2.95;;;;;;;37.51;35.71;91190.91;5012347;28;20030;-70
2022/07/29 08:39:24;;;;;;;4.00;3.17;;;;;;;36.64;36.92;91191.81;5012248;28;20033;-71
2022/07/29 08:41:51;;;;;;;3.40;3.10;;;;;;;36.46;37.86;91174.00;5027459;28;20037;-70
2022/07/29 08:44:18;;;;;;;3.50;2.90;;;;;;;36.03;38.29;91185.38;5011704;28;20034;-71
2022/07/29 08:46:44;;;;;;;6.88;3.70;;;;;;;37.90;36.53;91183.44;5011654;28;20045;-71
2022/07/29 08:49:09;;;;;;;2.90;2.70;;;;;;;38.45;36.02;91180.22;5012118;28;20045;-71
2022/07/29 08:51:36;;;;;;;3.05;2.75;;;;;;;39.21;34.93;91186.13;5012014;28;20030;-72
2022/07/29 08:54:02;;;;;;;4.28;2.85;;;;;;;38.03;35.92;91185.97;5012203;28;20040;-70
2022/07/29 08:56:28;;;;;;;3.47;2.80;;;;;;;38.42;35.87;91174.88;5011857;28;20488;-73
2022/07/29 08:58:55;;;;;;;3.00;2.70;;;;;;;38.27;33.15;91178.38;5012031;28;20026;-70
2022/07/29 09:01:23;;;;;;;4.32;2.75;;;;;;;39.75;32.01;91187.44;5011533;28;20468;-71
2022/07/29 09:03:50;;;;;;;3.03;2.67;;;;;;;38.41;33.79;91176.13;5011564;28;20033;-71
2022/07/29 09:06:19;;;;;;;3.15;2.67;;;;;;;40.14;32.60;91183.66;5011926;28;20112;-71
2022/07/29 09:08:45;;;;;;;4.70;2.92;;;;;;;39.74;32.04;91185.13;5011832;28;20553;-71
2022/07/29 09:11:13;;;;;;;3.45;2.40;;;;;;;37.37;34.08;91170.16;5011715;28;20381;-70
2022/07/29 09:13:39;;;;;;;3.58;3.00;;;;;;;38.56;33.87;91174.88;5011845;28;20036;-68
2022/07/29 09:16:05;;;;;;;2.47;2.10;;;;;;;34.77;35.92;91170.25;5011195;28;20049;-68
2022/07/29 09:18:42;;;;;;;2.80;2.50;;;;;;;33.96;38.51;91160.22;5011506;28;20053;-70
2022/07/29 09:24:04;;;;;;;3.88;2.75;;;;;;;33.06;40.79;91165.16;5011504;28;20124;-68
2022/07/29 09:26:35;;;;;;;3.10;2.80;;;;;;;34.96;39.19;91178.66;5011404;28;20044;-68
2022/07/29 09:29:09;;;;;;;2.63;2.33;;;;;;;34.34;39.89;91175.81;5011378;28;20038;-68
2022/07/29 09:31:40;;;;;;;3.00;2.40;;;;;;;32.52;40.50;91181.03;5011590;28;20049;-68
2022/07/29 09:34:07;;;;;;;2.53;2.28;;;;;;;32.04;40.39;91177.25;5011210;28;20053;-68
2022/07/29 09:36:44;;;;;;;3.45;2.63;;;;;;;32.89;39.44;91174.00;5011198;28;20423;-68
2022/07/29 09:39:10;;;;;;;3.08;2.60;;;;;;;36.74;36.21;91174.69;5011408;28;20080;-69
2022/07/29 09:41:53;;;;;;;2.63;2.10;;;;;;;38.29;32.24;91189.78;5011440;28;20041;-69
2022/07/29 09:44:20;;;;;;;2.60;2.30;;;;;;;36.16;34.84;91170.16;5011348;28;20120;-68
2022/07/29 09:47:05;;;;;;;2.85;2.42;;;;;;;35.39;35.93;91181.28;5011364;28;20629;-69
2022/07/29 09:49:35;;;;;;;2.60;2.40;;;;;;;35.57;33.74;91185.31;5011361;28;20042;-69
2022/07/29 09:52:04;;;;;;;2.83;2.60;;;;;;;34.67;35.20;91182.47;5011372;28;20496;-68
2022/07/29 09:54:34;;;;;;;3.17;2.33;;;;;;;33.19;36.84;91178.19;5011264;28;20073;-69
2022/07/29 09:56:59;;;;;;;2.75;2.33;;;;;;;31.66;39.91;91168.81;5011560;28;20049;-68
2022/07/29 09:59:26;;;;;;;2.38;2.17;;;;;;;30.19;39.99;91171.50;5011212;28;20042;-68
2022/07/29 10:01:52;;;;;;;3.00;2.40;;;;;;;31.21;38.49;91175.09;5011494;28;20052;-69
2022/07/29 10:04:18;;;;;;;2.72;2.20;;;;;;;31.15;38.32;91183.06;5011082;28;20046;-68
2022/07/29 10:07:00;;;;;;;3.28;2.30;;;;;;;33.27;36.41;91171.19;5011366;28;20045;-69
2022/07/29 10:09:26;;;;;;;2.53;2.10;;;;;;;34.96;34.23;91175.91;5011031;28;20439;-69
2022/07/29 10:12:15;;;;;;;3.08;2.38;;;;;;;35.59;33.46;91169.03;5011178;28;20296;-68
2022/07/29 10:14:42;;;;;;;2.53;2.33;;;;;;;37.24;32.11;91172.34;5011039;28;20046;-68
2022/07/29 10:17:09;;;;;;;2.72;2.13;;;;;;;38.18;30.85;91167.31;5011361;28;20077;-69
2022/07/29 10:19:36;;;;;;;2.35;2.15;;;;;;;38.29;30.55;91162.00;5011343;28;20054;-69
2022/07/29 10:22:06;;;;;;;2.50;2.30;;;;;;;36.92;31.39;91153.69;5011051;28;20081;-68
2022/07/29 10:24:33;;;;;;;4.03;2.60;;;;;;;36.31;33.50;91164.75;5009593;28;20111;-69
2022/07/29 10:27:01;;;;;;;2.60;2.40;;;;;;;37.56;33.25;91156.97;5026145;28;20557;-68
2022/07/29 10:29:28;;;;;;;2.83;2.35;;;;;;;39.30;30.13;91165.78;5026117;28;20125;-68
2022/07/29 10:32:34;;;;;;;2.58;2.38;;;;;;;39.35;29.63;91157.50;5011252;28;20073;-68
2022/07/29 10:35:29;;;;;;;2.55;2.22;;;;;;;36.15;32.67;91159.53;5010870;28;20130;-69
2022/07/29 10:37:57;;;;;;;2.55;2.22;;;;;;;33.68;36.10;91147.41;5010902;28;20042;-69
2022/07/29 10:43:35;;;;;;;2.78;2.53;;;;;;;32.70;37.16;91148.19;5010869;28;20057;-68
2022/07/29 10:46:02;;;;;;;2.80;2.55;;;;;;;32.31;37.13;91141.88;5012211;28;20042;-68
2022/07/29 10:48:28;;;;;;;2.42;2.22;;;;;;;32.40;37.72;91144.00;5014455;28;20081;-68
2022/07/29 10:51:04;;;;;;;2.40;2.20;;;;;;;31.87;38.41;91146.25;5014773;28;20435;-69
2022/07/29 10:53:52;;;;;;;3.58;2.33;;;;;;;32.09;37.80;91138.19;5014511;28;20565;-68
2022/07/29 10:56:29;;;;;;;2.40;2.20;;;;;;;31.25;39.11;91129.84;5008810;28;20249;-69
2022/07/29 10:59:20;;;;;;;3.55;2.80;;;;;;;29.67;41.93;91133.72;5022673;28;20050;-67
2022/07/29 11:01:50;;;;;;;4.32;2.33;;;;;;;30.17;41.48;91126.47;5033882;28;20034;-68
2022/07/29 11:04:34;;;;;;;6.40;2.83;;;;;;;29.46;41.71;91123.16;5033745;28;20072;-69
2022/07/29 11:07:06;;;;;;;2.67;2.47;;;;;;;28.53;43.42;91130.16;5033729;28;20039;-69
2022/07/29 11:09:32;;;;;;;2.53;2.30;;;;;;;28.23;44.42;91132.94;5033245;28;20470;-68
2022/07/29 11:11:57;;;;;;;3.30;2.40;;;;;;;28.87;43.42;91124.56;5033884;28;20044;-68
2022/07/29 11:14:52;;;;;;;2.83;2.45;;;;;;;31.07;41.35;91134.94;5033478;28;20503;-68
2022/07/29 11:17:17;;;;;;;3.17;2.30;;;;;;;31.99;38.52;91123.50;5032730;28;20060;-68
2022/07/29 11:19:44;;;;;;;2.58;2.30;;;;;;;30.63;40.68;91136.44;5033537;28;20037;-69
2022/07/29 11:22:11;;;;;;;3.05;2.30;;;;;;;32.13;37.62;91127.84;5033546;28;20099;-68
2022/07/29 11:24:37;;;;;;;2.45;2.25;;;;;;;33.37;36.67;91122.47;5032941;28;20041;-67
2022/07/29 11:27:20;;;;;;;4.82;2.50;;;;;;;35.33;33.71;91130.50;5033361;28;20049;-68
2022/07/29 11:29:51;;;;;;;2.35;1.98;;;;;;;35.30;33.56;91112.06;5033430;28;20045;-69
2022/07/29 11:32:19;;;;;;;2.90;2.40;;;;;;;34.95;34.56;91119.06;5033311;28;20049;-68
2022/07/29 11:34:46;;;;;;;2.45;2.25;;;;;;;34.46;34.74;91122.53;5033257;28;20107;-69
2022/07/29 11:37:14;;;;;;;4.30;2.38;;;;;;;33.25;37.12;91107.44;5033262;28;20046;-71
2022/07/29 11:39:53;;;;;;;2.55;1.95;;;;;;;33.30;36.95;91109.66;5032756;28;20415;-69
2022/07/29 11:42:21;;;;;;;2.83;2.60;;;;;;;31.70;38.90;91107.00;5033195;28;20050;-70
2022/07/29 11:45:01;;;;;;;2.70;2.50;;;;;;;30.78;39.88;91120.38;5032876;28;20041;-70
2022/07/29 11:47:30;;;;;;;4.18;2.42;;;;;;;29.22;42.61;91095.00;5032874;28;20037;-68